Time;durP1;ratioP1;P1;durP2;ratioP2;P2;SDS_P1;SDS_P2;PMS_P1;PMS_P2;Temp;Humidity;BMP_temperature;BMP_pressure;BME280_temperature;BME280_humidity;BME280_pressure;Samples;Min_cycle;Max_cycle;Signal;HPM_P1;HPM_P2
2021/08/27 00:00:27;;;;;;;;;;;;;;;26.57;nan;100414.94;5075026;28;19970;-43
2021/08/27 00:02:53;;;;;;;;;;;;;;;26.57;nan;100418.50;5057003;28;20464;-43
2021/08/27 00:05:19;;;;;;;;;;;;;;;26.58;nan;100416.63;5074872;28;19912;-42
2021/08/27 00:07:44;;;;;;;;;;;;;;;26.56;nan;100418.66;5057047;28;19912;-43
2021/08/27 00:10:10;;;;;;;;;;;;;;;26.57;nan;100414.94;5074834;28;19971;-43
2021/08/27 00:12:36;;;;;;;;;;;;;;;26.56;nan;100419.53;5074906;28;19928;-43
2021/08/27 00:15:06;;;;;;;;;;;;;;;26.56;nan;100415.94;5074714;28;20396;-43
2021/08/27 00:17:32;;;;;;;;;;;;;;;26.57;nan;100420.41;5074840;28;19919;-42
2021/08/27 00:19:58;;;;;;;;;;;;;;;26.55;nan;100417.81;5056534;28;19917;-43
2021/08/27 00:22:27;;;;;;;;;;;;;;;26.55;nan;100420.53;5074490;28;19923;-43
2021/08/27 00:24:52;;;;;;;;;;;;;;;26.53;nan;100419.88;5055211;28;19916;-42
2021/08/27 00:27:18;;;;;;;;;;;;;;;26.53;nan;100408.13;5074655;28;19965;-44
2021/08/27 00:29:46;;;;;;;;;;;;;;;26.54;nan;100421.56;5074537;28;19958;-43
2021/08/27 00:32:12;;;;;;;;;;;;;;;26.53;nan;100414.44;5074494;28;19912;-43
2021/08/27 00:34:38;;;;;;;;;;;;;;;26.52;nan;100410.00;5056244;28;19912;-44
2021/08/27 00:37:04;;;;;;;;;;;;;;;26.53;nan;100422.59;5056574;28;20300;-43
2021/08/27 00:39:30;;;;;;;;;;;;;;;26.52;nan;100423.63;5074439;28;19939;-43
2021/08/27 00:41:59;;;;;;;;;;;;;;;26.51;nan;100421.91;5074147;28;20015;-43
2021/08/27 00:44:25;;;;;;;;;;;;;;;26.49;nan;100419.38;5074141;28;19920;-45
2021/08/27 00:46:50;;;;;;;;;;;;;;;26.51;nan;100427.38;5074158;28;19923;-43
2021/08/27 00:49:16;;;;;;;;;;;;;;;26.50;nan;100425.66;5074225;28;19912;-43
2021/08/27 00:51:42;;;;;;;;;;;;;;;26.49;nan;100424.81;5056186;28;20024;-43
2021/08/27 00:54:08;;;;;;;;;;;;;;;26.47;nan;100413.22;5073872;28;19927;-43
2021/08/27 00:56:33;;;;;;;;;;;;;;;;;;5055966;28;19913;-43
2021/08/27 00:58:59;;;;;;;;;;;;;;;26.48;nan;100414.06;5074010;28;20407;-43
2021/08/27 01:01:25;;;;;;;;;;;;;;;26.47;nan;100420.56;5073842;28;19913;-43
2021/08/27 01:03:50;;;;;;;;;;;;;;;26.47;nan;100426.00;5073830;28;19916;-43
2021/08/27 01:06:39;;;;;;;;;;;;;;;26.47;nan;100420.56;5073771;28;19919;-42
2021/08/27 01:09:31;;;;;;;;;;;;;;;26.46;nan;100413.41;5060428;28;19912;-43
2021/08/27 01:11:59;;;;;;;;;;;;;;;;;;4972362;28;20235;-43
2021/08/27 01:14:30;;;;;;;;;;;;;;;26.45;nan;100417.13;4972638;28;19966;-43
2021/08/27 01:16:58;;;;;;;;;;;;;;;26.45;nan;100409.84;4972618;28;19914;-43
2021/08/27 01:19:35;;;;;;;;;;;;;;;26.44;nan;100416.28;4972643;28;19927;-42
2021/08/27 01:22:18;;;;;;;;;;;;;;;26.43;nan;100419.16;4972246;28;20283;-42
2021/08/27 01:24:46;;;;;;;;;;;;;;;;;;4972540;28;20012;-43
2021/08/27 01:27:16;;;;;;;;;;;;;;;26.42;nan;100407.41;4972387;28;19910;-42
2021/08/27 01:29:41;;;;;;;;;;;;;;;26.42;nan;100418.31;4972368;28;20374;-41
2021/08/27 01:32:09;;;;;;;;;;;;;;;26.43;nan;100405.53;4972296;28;19914;-41
2021/08/27 01:34:38;;;;;;;;;;;;;;;26.40;nan;100408.59;4971964;28;20009;-41
2021/08/27 01:37:06;;;;;;;;;;;;;;;26.41;nan;100405.72;4972877;28;19914;-41
2021/08/27 01:39:35;;;;;;;;;;;;;;;26.40;nan;100403.16;4973252;28;19914;-41
2021/08/27 01:42:01;;;;;;;;;;;;;;;26.41;nan;100404.88;4972273;28;19922;-41
2021/08/27 01:44:28;;;;;;;;;;;;;;;26.41;nan;100407.59;4972111;28;19914;-41
2021/08/27 01:46:56;;;;;;;;;;;;;;;26.40;nan;100404.00;4972077;28;19945;-41
2021/08/27 01:49:31;;;;;;;;;;;;;;;26.40;nan;100403.16;5048013;28;19920;-42
2021/08/27 01:52:02;;;;;;;;;;;;;;;26.40;nan;100400.44;5054895;28;19916;-43
2021/08/27 01:54:29;;;;;;;;;;;;;;;26.38;nan;100400.63;5093115;22;19971;-46
2021/08/27 01:56:55;;;;;;;;;;;;;;;26.39;nan;100401.47;5054514;28;19958;-44
2021/08/27 01:59:23;;;;;;;;;;;;;;;26.39;nan;100401.47;5072681;28;20041;-44
2021/08/27 02:01:48;;;;;;;;;;;;;;;26.38;nan;100391.59;5072377;28;19942;-48
2021/08/27 02:04:17;;;;;;;;;;;;;;;26.37;nan;100388.03;5054450;28;19922;-46
2021/08/27 02:06:43;;;;;;;;;;;;;;;26.37;nan;100390.75;5072436;28;19921;-45
2021/08/27 02:09:10;;;;;;;;;;;;;;;26.37;nan;100387.16;5072557;28;20296;-45
2021/08/27 02:11:35;;;;;;;;;;;;;;;;;;5072370;28;19917;-45
2021/08/27 02:14:00;;;;;;;;;;;;;;;26.37;nan;100398.06;5072365;28;20506;-46
2021/08/27 02:16:26;;;;;;;;;;;;;;;26.36;nan;100393.63;5054257;28;19977;-47
2021/08/27 02:18:55;;;;;;;;;;;;;;;26.34;nan;100392.97;5073002;28;19947;-46
2021/08/27 02:21:21;;;;;;;;;;;;;;;26.33;nan;100386.66;5054269;28;19916;-48
2021/08/27 02:23:49;;;;;;;;;;;;;;;26.33;nan;100383.06;5072138;28;20007;-46
2021/08/27 02:26:17;;;;;;;;;;;;;;;26.34;nan;100392.97;5072133;28;19965;-47
2021/08/27 02:28:45;;;;;;;;;;;;;;;26.31;nan;100382.41;5072191;28;19924;-45
2021/08/27 02:31:12;;;;;;;;;;;;;;;26.33;nan;100388.50;5071715;28;19912;-46
2021/08/27 02:33:47;;;;;;;;;;;;;;;26.32;nan;100384.94;5072289;28;19916;-44
2021/08/27 02:36:14;;;;;;;;;;;;;;;26.32;nan;100384.09;5065582;28;19916;-44
2021/08/27 02:38:40;;;;;;;;;;;;;;;26.31;nan;100372.34;5054094;28;20327;-45
2021/08/27 02:41:06;;;;;;;;;;;;;;;26.32;nan;100389.53;5053546;28;19947;-45
2021/08/27 02:43:31;;;;;;;;;;;;;;;26.31;nan;100387.84;5070608;28;19952;-45
2021/08/27 02:45:57;;;;;;;;;;;;;;;26.30;nan;100377.97;5071522;28;19912;-45
2021/08/27 02:48:22;;;;;;;;;;;;;;;26.30;nan;100380.69;5071435;28;19925;-45
2021/08/27 02:51:00;;;;;;;;;;;;;;;26.30;nan;100375.25;5071981;28;19912;-44
2021/08/27 02:53:28;;;;;;;;;;;;;;;26.30;nan;100388.88;5071805;28;19931;-46
2021/08/27 02:55:59;;;;;;;;;;;;;;;26.27;nan;100373.72;5072347;28;19917;-45
2021/08/27 02:58:29;;;;;;;;;;;;;;;26.28;nan;100369.97;5071678;28;19936;-47
2021/08/27 03:01:00;;;;;;;;;;;;;;;26.25;nan;100371.16;5071774;28;19912;-48
2021/08/27 03:03:27;;;;;;;;;;;;;;;26.27;nan;100372.88;5071603;28;19916;-46
2021/08/27 03:05:58;;;;;;;;;;;;;;;26.27;nan;100376.44;5071777;28;19920;-46
2021/08/27 03:08:24;;;;;;;;;;;;;;;26.27;nan;100372.88;5071629;28;19912;-47
2021/08/27 03:10:53;;;;;;;;;;;;;;;26.25;nan;100384.78;5071764;28;19919;-45
2021/08/27 03:13:28;;;;;;;;;;;;;;;26.25;nan;100378.47;5071507;28;20380;-44
2021/08/27 03:16:05;;;;;;;;;;;;;;;26.25;nan;100375.75;5071468;28;19919;-47
2021/08/27 03:18:33;;;;;;;;;;;;;;;26.23;nan;100373.19;5071644;28;19913;-49
2021/08/27 03:21:05;;;;;;;;;;;;;;;26.23;nan;100364.19;5071706;28;19913;-47
2021/08/27 03:23:32;;;;;;;;;;;;;;;26.23;nan;100375.94;5071382;28;20571;-46
2021/08/27 03:26:00;;;;;;;;;;;;;;;26.22;nan;100368.78;5071595;28;19912;-46
2021/08/27 03:28:31;;;;;;;;;;;;;;;26.23;nan;100366.91;5071403;28;19913;-49
2021/08/27 03:31:00;;;;;;;;;;;;;;;26.22;nan;100367.94;5071513;28;19912;-47
2021/08/27 03:33:26;;;;;;;;;;;;;;;26.19;nan;100363.66;5071215;28;19939;-46
2021/08/27 03:35:55;;;;;;;;;;;;;;;26.19;nan;100363.66;5071491;28;19942;-48
2021/08/27 03:38:24;;;;;;;;;;;;;;;26.20;nan;100370.81;5053311;28;19916;-49
2021/08/27 03:40:50;;;;;;;;;;;;;;;26.20;nan;100368.09;5071522;28;19920;-48
2021/08/27 03:43:15;;;;;;;;;;;;;;;26.17;nan;100365.69;5071164;28;19982;-46
2021/08/27 03:45:42;;;;;;;;;;;;;;;26.18;nan;100364.69;5071394;28;19913;-47
2021/08/27 03:48:07;;;;;;;;;;;;;;;26.19;nan;100379.16;5071238;28;19957;-45
2021/08/27 03:50:45;;;;;;;;;;;;;;;26.17;nan;100376.59;5071212;28;19916;-48
2021/08/27 03:53:11;;;;;;;;;;;;;;;26.17;nan;100373.88;5071021;28;19916;-46
2021/08/27 03:55:37;;;;;;;;;;;;;;;26.16;nan;100374.91;5071290;28;19996;-46
2021/08/27 03:58:03;;;;;;;;;;;;;;;26.16;nan;100369.44;5054203;28;19920;-46
2021/08/27 04:00:28;;;;;;;;;;;;;;;26.15;nan;100370.50;5074898;28;19913;-48
2021/08/27 04:02:54;;;;;;;;;;;;;;;26.15;nan;100373.22;5056707;28;20394;-46
2021/08/27 04:05:20;;;;;;;;;;;;;;;26.14;nan;100374.25;5056845;28;19947;-46
2021/08/27 04:07:46;;;;;;;;;;;;;;;26.14;nan;100374.25;5074880;28;20304;-47
2021/08/27 04:10:20;;;;;;;;;;;;;;;26.14;nan;100373.41;5074656;28;19912;-46
2021/08/27 04:12:49;;;;;;;;;;;;;;;26.13;nan;100377.13;5075048;28;20288;-45
2021/08/27 04:15:18;;;;;;;;;;;;;;;26.13;nan;100380.69;5074420;28;19936;-48
2021/08/27 04:17:44;;;;;;;;;;;;;;;26.13;nan;100380.69;5074527;28;19912;-46
2021/08/27 04:20:12;;;;;;;;;;;;;;;26.12;nan;100373.53;5074564;28;19919;-48
2021/08/27 04:22:38;;;;;;;;;;;;;;;26.11;nan;100369.13;5074427;28;19947;-45
2021/08/27 04:25:03;;;;;;;;;;;;;;;26.11;nan;100376.44;5039866;28;19978;-45
2021/08/27 04:27:29;;;;;;;;;;;;;;;26.11;nan;100371.00;5074510;28;19935;-48
2021/08/27 04:29:54;;;;;;;;;;;;;;;26.10;nan;100374.72;5074197;28;20296;-47
2021/08/27 04:32:23;;;;;;;;;;;;;;;26.10;nan;100375.59;5056088;28;20030;-46
2021/08/27 04:34:52;;;;;;;;;;;;;;;26.08;nan;100377.63;5074114;28;20058;-50
2021/08/27 04:37:17;;;;;;;;;;;;;;;26.07;nan;100386.84;5074343;28;20270;-46
2021/08/27 04:39:45;;;;;;;;;;;;;;;26.06;nan;100374.22;5056241;28;20401;-46
2021/08/27 04:42:11;;;;;;;;;;;;;;;26.07;nan;100381.38;5056210;28;19923;-46
2021/08/27 04:44:36;;;;;;;;;;;;;;;26.07;nan;100375.94;5073782;28;19912;-47
2021/08/27 04:47:02;;;;;;;;;;;;;;;26.06;nan;100374.22;5074110;28;20015;-47
2021/08/27 04:49:27;;;;;;;;;;;;;;;;;;5074242;28;19912;-45
2021/08/27 04:51:53;;;;;;;;;;;;;;;26.05;nan;100390.75;5074023;28;20399;-48
2021/08/27 04:54:18;;;;;;;;;;;;;;;26.04;nan;100379.00;5073626;28;19928;-46
2021/08/27 04:56:44;;;;;;;;;;;;;;;26.03;nan;100396.38;5074004;28;19935;-47
2021/08/27 04:59:09;;;;;;;;;;;;;;;26.05;nan;100393.47;5073812;28;19924;-46
2021/08/27 05:01:35;;;;;;;;;;;;;;;26.04;nan;100402.66;5073748;28;20010;-49
2021/08/27 05:04:00;;;;;;;;;;;;;;;26.03;nan;100403.69;5073917;28;19943;-48
2021/08/27 05:06:26;;;;;;;;;;;;;;;26.03;nan;100407.25;5074015;28;20361;-48
2021/08/27 05:08:51;;;;;;;;;;;;;;;26.01;nan;100410.13;5073645;28;19916;-46
2021/08/27 05:11:17;;;;;;;;;;;;;;;26.03;nan;100411.88;5072924;28;20054;-47
2021/08/27 05:13:42;;;;;;;;;;;;;;;26.01;nan;100409.28;5055516;28;20273;-48
2021/08/27 05:16:08;;;;;;;;;;;;;;;26.00;nan;100413.03;5073481;28;19912;-47
2021/08/27 05:18:34;;;;;;;;;;;;;;;26.00;nan;100410.31;5073523;28;20006;-46
2021/08/27 05:21:02;;;;;;;;;;;;;;;26.00;nan;100408.44;5073046;28;19999;-48
2021/08/27 05:23:28;;;;;;;;;;;;;;;26.00;nan;100421.22;5073686;28;19923;-46
2021/08/27 05:25:53;;;;;;;;;;;;;;;26.00;nan;100418.50;5073791;28;19916;-44
2021/08/27 05:28:19;;;;;;;;;;;;;;;25.98;nan;100415.06;5073748;28;19958;-46
2021/08/27 05:30:44;;;;;;;;;;;;;;;25.99;nan;100414.91;5073312;28;20335;-47
2021/08/27 05:33:10;;;;;;;;;;;;;;;25.98;nan;100415.91;5073351;28;19913;-45
2021/08/27 05:35:36;;;;;;;;;;;;;;;25.98;nan;100417.78;5073084;28;19935;-46
2021/08/27 05:38:01;;;;;;;;;;;;;;;25.98;nan;100417.78;5073296;28;19921;-46
2021/08/27 05:40:26;;;;;;;;;;;;;;;25.97;nan;100414.22;5073049;28;19912;-48
2021/08/27 05:42:52;;;;;;;;;;;;;;;25.97;nan;100416.09;5072885;28;19917;-48
2021/08/27 05:45:19;;;;;;;;;;;;;;;25.96;nan;100417.13;5072775;28;19969;-48
2021/08/27 05:47:45;;;;;;;;;;;;;;;25.97;nan;100413.38;5072890;28;19913;-47
2021/08/27 05:50:11;;;;;;;;;;;;;;;25.97;nan;100413.38;5072778;28;19912;-49
2021/08/27 05:52:37;;;;;;;;;;;;;;;25.95;nan;100407.25;5073010;28;19912;-46
2021/08/27 05:55:03;;;;;;;;;;;;;;;25.96;nan;100406.22;5072547;28;20416;-46
2021/08/27 05:57:28;;;;;;;;;;;;;;;;;;5054842;28;19924;-46
2021/08/27 05:59:54;;;;;;;;;;;;;;;25.96;nan;100408.97;5072635;28;20269;-48
2021/08/27 06:02:19;;;;;;;;;;;;;;;25.94;nan;100409.09;5072568;28;19917;-47
2021/08/27 06:04:45;;;;;;;;;;;;;;;25.95;nan;100410.84;5072555;28;19919;-47
2021/08/27 06:07:10;;;;;;;;;;;;;;;25.94;nan;100408.25;5072478;28;20369;-48
2021/08/27 06:09:36;;;;;;;;;;;;;;;;;;5054548;28;19919;-45
2021/08/27 06:12:01;;;;;;;;;;;;;;;25.96;nan;100406.22;5072214;28;19912;-48
2021/08/27 06:14:27;;;;;;;;;;;;;;;25.95;nan;100415.44;5072395;28;19913;-46
2021/08/27 06:16:52;;;;;;;;;;;;;;;25.94;nan;100413.69;5072327;28;19959;-48
2021/08/27 06:19:18;;;;;;;;;;;;;;;25.96;nan;100422.56;5054432;28;20080;-48
2021/08/27 06:21:43;;;;;;;;;;;;;;;25.94;nan;100413.69;5072215;28;19916;-45
2021/08/27 06:24:09;;;;;;;;;;;;;;;25.94;nan;100420.00;5054203;28;19912;-47
2021/08/27 06:26:34;;;;;;;;;;;;;;;25.95;nan;100432.63;5072087;28;19919;-46
2021/08/27 06:29:03;;;;;;;;;;;;;;;25.96;nan;100428.00;5054209;28;20337;-46
2021/08/27 06:31:32;;;;;;;;;;;;;;;25.95;nan;100424.44;5071940;28;19913;-46
2021/08/27 06:33:57;;;;;;;;;;;;;;;25.95;nan;100415.44;5072126;28;19913;-48
2021/08/27 06:36:23;;;;;;;;;;;;;;;25.94;nan;100422.72;5072002;28;19916;-46
2021/08/27 06:38:48;;;;;;;;;;;;;;;;;;5072604;28;19919;-45
2021/08/27 06:41:13;;;;;;;;;;;;;;;25.94;nan;100420.00;5071821;28;19930;-49
2021/08/27 06:43:42;;;;;;;;;;;;;;;;;;5053877;28;19923;-47
2021/08/27 06:46:07;;;;;;;;;;;;;;;;;;5071749;28;19912;-45
2021/08/27 06:48:33;;;;;;;;;;;;;;;25.95;nan;100431.78;5053931;28;19923;-45
2021/08/27 06:50:59;;;;;;;;;;;;;;;25.95;nan;100431.78;5071857;28;20391;-46
2021/08/27 06:53:25;;;;;;;;;;;;;;;25.94;nan;100430.03;5071659;28;19983;-45
2021/08/27 06:55:50;;;;;;;;;;;;;;;25.94;nan;100432.75;5071834;28;19913;-48
2021/08/27 06:58:16;;;;;;;;;;;;;;;25.95;nan;100442.66;5071816;28;19935;-47
2021/08/27 07:00:41;;;;;;;;;;;;;;;25.94;nan;100435.50;5053763;28;19912;-49
2021/08/27 07:03:07;;;;;;;;;;;;;;;25.94;nan;100439.06;5071216;28;19924;-46
2021/08/27 07:05:33;;;;;;;;;;;;;;;25.94;nan;100440.94;5072136;28;19974;-46
2021/08/27 07:07:58;;;;;;;;;;;;;;;25.94;nan;100446.38;5071553;28;20357;-46
2021/08/27 07:10:24;;;;;;;;;;;;;;;25.93;nan;100442.81;5071545;28;19913;-49
2021/08/27 07:12:53;;;;;;;;;;;;;;;25.93;nan;100440.09;5071645;28;19956;-48
2021/08/27 07:15:19;;;;;;;;;;;;;;;25.94;nan;100446.38;5071644;28;20296;-45
2021/08/27 07:17:45;;;;;;;;;;;;;;;25.94;nan;100440.94;5071552;28;20015;-49
2021/08/27 07:20:10;;;;;;;;;;;;;;;;;;5071496;28;20353;-48
2021/08/27 07:22:36;;;;;;;;;;;;;;;25.93;nan;100445.53;5071353;28;19927;-47
2021/08/27 07:25:02;;;;;;;;;;;;;;;25.93;nan;100434.63;5071550;28;20377;-46
2021/08/27 07:27:27;;;;;;;;;;;;;;;25.94;nan;100435.50;5053427;28;20010;-47
2021/08/27 07:29:53;;;;;;;;;;;;;;;25.94;nan;100440.94;5071565;28;19982;-45
2021/08/27 07:32:27;;;;;;;;;;;;;;;;;;5071237;28;19948;-46
2021/08/27 07:34:53;;;;;;;;;;;;;;;25.93;nan;100439.25;5075329;28;20377;-49
2021/08/27 07:37:18;;;;;;;;;;;;;;;25.93;nan;100437.38;5075308;28;19920;-47
2021/08/27 07:39:44;;;;;;;;;;;;;;;25.93;nan;100436.50;5057378;28;20012;-48
2021/08/27 07:42:10;;;;;;;;;;;;;;;25.94;nan;100438.22;5075158;28;19916;-46
2021/08/27 07:44:36;;;;;;;;;;;;;;;25.95;nan;100434.50;5075301;28;19913;-49
2021/08/27 07:47:01;;;;;;;;;;;;;;;;;;5075154;28;20357;-47
2021/08/27 07:49:33;;;;;;;;;;;;;;;25.96;nan;100428.00;5075240;28;19923;-48
2021/08/27 07:51:59;;;;;;;;;;;;;;;25.96;nan;100436.19;5075022;28;19919;-49
2021/08/27 07:54:24;;;;;;;;;;;;;;;;;;5075288;28;19920;-45
2021/08/27 07:56:50;;;;;;;;;;;;;;;25.97;nan;100425.13;5075085;28;19919;-46
2021/08/27 07:59:15;;;;;;;;;;;;;;;25.98;nan;100428.69;5074891;28;19919;-46
2021/08/27 08:01:41;;;;;;;;;;;;;;;26.01;nan;100426.47;5074794;28;19912;-46
2021/08/27 08:04:09;;;;;;;;;;;;;;;26.03;nan;100434.50;5074654;28;20269;-44
2021/08/27 08:06:35;;;;;;;;;;;;;;;26.06;nan;100422.41;5074819;28;19912;-47
2021/08/27 08:09:01;;;;;;;;;;;;;;;26.09;nan;100432.97;5074603;28;19912;-46
2021/08/27 08:11:27;;;;;;;;;;;;;;;26.11;nan;100429.06;5074669;28;19917;-45
2021/08/27 08:13:52;;;;;;;;;;;;;;;26.14;nan;100427.88;5056540;28;20293;-46
2021/08/27 08:16:18;;;;;;;;;;;;;;;26.16;nan;100429.38;5074682;28;19939;-46
2021/08/27 08:18:43;;;;;;;;;;;;;;;26.19;nan;100418.16;5074595;28;20082;-47
2021/08/27 08:21:09;;;;;;;;;;;;;;;;;;5074657;28;20006;-45
2021/08/27 08:23:34;;;;;;;;;;;;;;;26.25;nan;100430.22;5074345;28;19923;-46
2021/08/27 08:26:00;;;;;;;;;;;;;;;26.28;nan;100426.31;5074624;28;19935;-48
2021/08/27 08:28:25;;;;;;;;;;;;;;;;;;5074309;28;19948;-44
2021/08/27 08:30:53;;;;;;;;;;;;;;;;;;5074316;28;19965;-44
2021/08/27 08:33:22;;;;;;;;;;;;;;;;;;5056014;28;20361;-43
2021/08/27 08:35:47;;;;;;;;;;;;;;;;;;5056249;28;20339;-46
2021/08/27 08:38:13;;;;;;;;;;;;;;;26.41;nan;100421.22;5056052;28;19916;-46
2021/08/27 08:40:38;;;;;;;;;;;;;;;;;;5074254;28;19917;-45
2021/08/27 08:43:04;;;;;;;;;;;;;;;;;;5073935;28;19920;-48
2021/08/27 08:45:29;;;;;;;;;;;;;;;;;;5072931;28;19920;-45
2021/08/27 08:47:55;;;;;;;;;;;;;;;;;;5073837;28;19912;-47
2021/08/27 08:50:20;;;;;;;;;;;;;;;26.50;nan;100403.88;5073790;28;20431;-46
2021/08/27 08:52:46;;;;;;;;;;;;;;;;;;5073839;28;19938;-46
2021/08/27 08:55:14;;;;;;;;;;;;;;;;;;5073764;28;19927;-43
2021/08/27 08:57:40;;;;;;;;;;;;;;;26.56;nan;100405.91;5074286;28;19913;-45
2021/08/27 09:00:05;;;;;;;;;;;;;;;26.57;nan;100399.44;5055913;28;19959;-43
2021/08/27 09:02:31;;;;;;;;;;;;;;;26.58;nan;100401.13;5073788;28;19975;-44
2021/08/27 09:04:56;;;;;;;;;;;;;;;26.59;nan;100401.97;5073735;28;20373;-45
2021/08/27 09:07:22;;;;;;;;;;;;;;;26.60;nan;100393.63;5073725;28;19966;-44
2021/08/27 09:09:50;;;;;;;;;;;;;;;26.62;nan;100396.19;5073599;28;19912;-46
2021/08/27 09:12:17;;;;;;;;;;;;;;;26.62;nan;100391.56;5073628;28;20167;-44
2021/08/27 09:14:42;;;;;;;;;;;;;;;;;;5073453;28;19912;-45
2021/08/27 09:17:10;;;;;;;;;;;;;;;26.64;nan;100388.69;5073600;28;19958;-43
2021/08/27 09:19:54;;;;;;;;;;;;;;;26.64;nan;100395.00;5073425;28;20376;-46
2021/08/27 09:22:20;;;;;;;;;;;;;;;26.63;nan;100382.38;5073311;28;19917;-44
2021/08/27 09:25:04;;;;;;;;;;;;;;;26.65;nan;100385.78;5073397;28;19917;-43
2021/08/27 09:27:31;;;;;;;;;;;;;;;;;;5055435;28;20421;-47
2021/08/27 09:29:58;;;;;;;;;;;;;;;26.65;nan;100380.31;5073109;28;19918;-48
2021/08/27 09:32:28;;;;;;;;;;;;;;;26.67;nan;100393.78;5073082;28;19916;-44
2021/08/27 09:34:59;;;;;;;;;;;;;;;26.67;nan;100389.19;5072932;28;19916;-45
2021/08/27 09:37:25;;;;;;;;;;;;;;;;;;5073154;28;19924;-45
2021/08/27 09:39:50;;;;;;;;;;;;;;;;;;5072925;28;19966;-44
2021/08/27 09:42:15;;;;;;;;;;;;;;;26.68;nan;100390.88;5072994;28;19932;-45
2021/08/27 09:44:50;;;;;;;;;;;;;;;26.69;nan;100389.00;5072722;28;19938;-45
2021/08/27 09:47:16;;;;;;;;;;;;;;;;;;5072857;28;19913;-48
2021/08/27 09:49:44;;;;;;;;;;;;;;;26.70;nan;100388.81;5072756;28;20292;-47
2021/08/27 09:52:13;;;;;;;;;;;;;;;26.71;nan;100378.75;5072662;28;19919;-45
2021/08/27 09:54:40;;;;;;;;;;;;;;;26.70;nan;100388.81;5072449;28;19920;-47
2021/08/27 09:57:05;;;;;;;;;;;;;;;;;;5072395;28;20012;-45
2021/08/27 09:59:35;;;;;;;;;;;;;;;26.70;nan;100377.91;5072545;28;20054;-46
2021/08/27 10:02:04;;;;;;;;;;;;;;;26.72;nan;100375.03;5072587;28;19912;-46
2021/08/27 10:04:30;;;;;;;;;;;;;;;26.72;nan;100373.16;5072494;28;19916;-46
2021/08/27 10:06:56;;;;;;;;;;;;;;;26.73;nan;100377.56;5072544;28;19912;-45
2021/08/27 10:09:25;;;;;;;;;;;;;;;;;;5072380;28;19919;-46
2021/08/27 10:11:59;;;;;;;;;;;;;;;26.74;nan;100368.38;5072327;28;20387;-45
2021/08/27 10:14:25;;;;;;;;;;;;;;;26.74;nan;100364.78;5072217;28;19920;-45
2021/08/27 10:16:50;;;;;;;;;;;;;;;26.74;nan;100365.63;5072337;28;19935;-49
2021/08/27 10:19:16;;;;;;;;;;;;;;;;;;5072331;28;19994;-46
2021/08/27 10:21:41;;;;;;;;;;;;;;;;;;5072069;28;20289;-45
2021/08/27 10:24:06;;;;;;;;;;;;;;;;;;5071632;28;19986;-47
2021/08/27 10:26:32;;;;;;;;;;;;;;;;;;5072191;28;19939;-45
2021/08/27 10:29:03;;;;;;;;;;;;;;;26.77;nan;100360.88;5072128;28;19913;-45
2021/08/27 10:31:28;;;;;;;;;;;;;;;;;;5072243;28;19920;-47
2021/08/27 10:33:54;;;;;;;;;;;;;;;26.78;nan;100351.66;5072026;28;19920;-47
2021/08/27 10:36:22;;;;;;;;;;;;;;;26.79;nan;100345.16;5071889;28;19916;-48
2021/08/27 10:38:47;;;;;;;;;;;;;;;;;;5072043;28;20397;-43
2021/08/27 10:41:13;;;;;;;;;;;;;;;26.80;nan;100349.63;5071928;28;20004;-45
2021/08/27 10:44:00;;;;;;;;;;;;;;;26.81;nan;100343.13;5071977;28;19917;-45
2021/08/27 10:46:48;;;;;;;;;;;;;;;26.80;nan;100333.25;5071820;28;19913;-44
2021/08/27 10:49:16;;;;;;;;;;;;;;;;;;5057116;28;19917;-44
2021/08/27 10:51:46;;;;;;;;;;;;;;;26.81;nan;100330.34;5072574;28;19958;-45
2021/08/27 10:54:13;;;;;;;;;;;;;;;26.80;nan;100328.66;5071415;28;19928;-45
2021/08/27 10:56:41;;;;;;;;;;;;;;;26.82;nan;100323.00;5071727;28;19988;-44
2021/08/27 10:59:08;;;;;;;;;;;;;;;26.82;nan;100312.09;5071765;28;20000;-45
2021/08/27 11:01:38;;;;;;;;;;;;;;;26.81;nan;100313.97;5071470;28;19912;-47
2021/08/27 11:04:09;;;;;;;;;;;;;;;26.83;nan;100316.56;5070500;28;19917;-48
2021/08/27 11:06:47;;;;;;;;;;;;;;;26.83;nan;100311.09;5071938;28;20010;-45
2021/08/27 11:09:13;;;;;;;;;;;;;;;26.84;nan;100307.34;5071459;28;19923;-45
2021/08/27 11:11:38;;;;;;;;;;;;;;;26.85;nan;100309.03;5071931;28;19913;-45
2021/08/27 11:14:22;;;;;;;;;;;;;;;26.85;nan;100303.56;5071722;28;19931;-47
2021/08/27 11:17:02;;;;;;;;;;;;;;;26.86;nan;100305.28;5071736;28;19952;-47
2021/08/27 11:19:58;;;;;;;;;;;;;;;26.85;nan;100295.41;5071621;28;19936;-45
2021/08/27 11:22:23;;;;;;;;;;;;;;;;;;5039746;28;19916;-44
2021/08/27 11:24:49;;;;;;;;;;;;;;;;;;5053528;28;19920;-45
2021/08/27 11:27:20;;;;;;;;;;;;;;;26.88;nan;100303.22;5071502;28;19912;-44
2021/08/27 11:29:49;;;;;;;;;;;;;;;;;;5071586;28;19912;-46
2021/08/27 11:32:27;;;;;;;;;;;;;;;26.88;nan;100292.31;5071306;28;19927;-45
2021/08/27 11:34:57;;;;;;;;;;;;;;;26.89;nan;100294.84;5071316;28;19919;-45
2021/08/27 11:37:22;;;;;;;;;;;;;;;;;;5071354;28;20003;-45
2021/08/27 11:39:47;;;;;;;;;;;;;;;;;;5071426;28;20479;-46
2021/08/27 11:42:13;;;;;;;;;;;;;;;;;;5071226;28;19916;-46
2021/08/27 11:44:54;;;;;;;;;;;;;;;26.90;nan;100279.34;5071755;28;19919;-46
2021/08/27 11:47:20;;;;;;;;;;;;;;;;;;5071196;28;19919;-46
2021/08/27 11:50:00;;;;;;;;;;;;;;;26.91;nan;100278.34;5071376;28;19916;-46
2021/08/27 11:52:25;;;;;;;;;;;;;;;;;;5053543;28;20285;-46
2021/08/27 11:55:01;;;;;;;;;;;;;;;26.91;nan;100264.69;5071018;28;20376;-44
2021/08/27 11:57:30;;;;;;;;;;;;;;;26.92;nan;100260.94;5071062;28;19912;-45
2021/08/27 11:59:55;;;;;;;;;;;;;;;;;;5071496;28;20443;-47
2021/08/27 12:02:24;;;;;;;;;;;;;;;26.93;nan;100273.53;5071348;28;20432;-45
2021/08/27 12:04:49;;;;;;;;;;;;;;;;;;5071120;28;19923;-46
2021/08/27 12:07:14;;;;;;;;;;;;;;;;;;5071188;28;19912;-46
2021/08/27 12:09:41;;;;;;;;;;;;;;;26.94;nan;100273.38;5071256;28;19912;-48
2021/08/27 12:12:07;;;;;;;;;;;;;;;26.94;nan;100269.81;5071414;28;19943;-45
2021/08/27 12:14:52;;;;;;;;;;;;;;;26.95;nan;100276.94;5071771;28;19959;-45
2021/08/27 12:17:18;;;;;;;;;;;;;;;26.95;nan;100266.03;5071225;28;19917;-44
2021/08/27 12:19:43;;;;;;;;;;;;;;;26.96;nan;100267.72;5055044;28;19920;-45
2021/08/27 12:22:12;;;;;;;;;;;;;;;26.96;nan;100259.53;5074525;28;19913;-49
2021/08/27 12:24:40;;;;;;;;;;;;;;;26.97;nan;100266.69;5074487;28;19999;-45
2021/08/27 12:27:06;;;;;;;;;;;;;;;26.97;nan;100263.97;5074435;28;19912;-48
2021/08/27 12:29:31;;;;;;;;;;;;;;;26.97;nan;100258.50;5074667;28;20003;-46
2021/08/27 12:32:00;;;;;;;;;;;;;;;26.98;nan;100260.22;5074472;28;19944;-45
2021/08/27 12:34:26;;;;;;;;;;;;;;;26.98;nan;100261.06;5074375;28;20373;-46
2021/08/27 12:36:51;;;;;;;;;;;;;;;26.96;nan;100256.81;5074457;28;19977;-46
2021/08/27 12:39:16;;;;;;;;;;;;;;;;;;5056257;28;19916;-45
2021/08/27 12:41:42;;;;;;;;;;;;;;;;;;5073827;28;19912;-45
2021/08/27 12:44:16;;;;;;;;;;;;;;;27.01;nan;100270.75;5055930;28;19916;-44
2021/08/27 12:46:48;;;;;;;;;;;;;;;27.01;nan;100268.03;5056287;28;19919;-45
2021/08/27 12:49:19;;;;;;;;;;;;;;;27.01;nan;100256.28;5074068;28;19912;-45
2021/08/27 12:51:46;;;;;;;;;;;;;;;27.01;nan;100259.84;5074173;28;19971;-44
2021/08/27 12:54:12;;;;;;;;;;;;;;;27.01;nan;100265.31;5073763;28;19971;-46
2021/08/27 12:56:37;;;;;;;;;;;;;;;27.02;nan;100261.56;5074020;28;19912;-46
2021/08/27 12:59:16;;;;;;;;;;;;;;;27.03;nan;100263.25;5073858;28;19919;-47
2021/08/27 13:01:45;;;;;;;;;;;;;;;27.03;nan;100263.25;5074328;28;19912;-45
2021/08/27 13:04:10;;;;;;;;;;;;;;;27.04;nan;100269.56;5073593;28;20008;-45
2021/08/27 13:06:39;;;;;;;;;;;;;;;;;;5055853;28;20360;-45
2021/08/27 13:09:12;;;;;;;;;;;;;;;27.04;nan;100264.94;5055694;28;20407;-44
2021/08/27 13:11:43;;;;;;;;;;;;;;;27.04;nan;100258.66;5055846;28;19935;-45
2021/08/27 13:14:19;;;;;;;;;;;;;;;27.04;nan;100264.94;5072725;28;19920;-45
2021/08/27 13:16:55;;;;;;;;;;;;;;;27.04;nan;100266.84;5073614;28;20038;-44
2021/08/27 13:19:21;;;;;;;;;;;;;;;27.04;nan;100270.41;5073616;28;19920;-45
2021/08/27 13:21:47;;;;;;;;;;;;;;;27.06;nan;100278.44;5055521;28;19913;-45
2021/08/27 13:24:13;;;;;;;;;;;;;;;27.05;nan;100280.28;5073117;28;19916;-45
2021/08/27 13:26:39;;;;;;;;;;;;;;;27.06;nan;100282.00;5073507;28;19912;-45
2021/08/27 13:29:07;;;;;;;;;;;;;;;27.05;nan;100266.63;5055424;28;19923;-46